sensor_id;sensor_type;location;lat;lon;timestamp;temperature;humidity
41762;DHT22;27441;50.860;0.258;2022-10-26T00:01:30;15.80;99.90
41762;DHT22;27441;50.860;0.258;2022-10-26T00:03:56;15.80;99.90
41762;DHT22;27441;50.860;0.258;2022-10-26T00:06:24;15.70;99.90
41762;DHT22;27441;50.860;0.258;2022-10-26T00:08:50;15.70;99.90
41762;DHT22;27441;50.860;0.258;2022-10-26T00:11:17;15.70;99.90
41762;DHT22;27441;50.860;0.258;2022-10-26T00:13:44;15.60;99.90
41762;DHT22;27441;50.860;0.258;2022-10-26T00:16:22;15.70;99.90
41762;DHT22;27441;50.860;0.258;2022-10-26T00:18:49;15.60;99.90
41762;DHT22;27441;50.860;0.258;2022-10-26T00:21:15;15.70;99.90
41762;DHT22;27441;50.860;0.258;2022-10-26T00:23:41;15.70;99.90
41762;DHT22;27441;50.860;0.258;2022-10-26T00:26:08;15.70;99.90
41762;DHT22;27441;50.860;0.258;2022-10-26T00:28:34;15.70;99.90
41762;DHT22;27441;50.860;0.258;2022-10-26T00:31:06;15.80;99.90
41762;DHT22;27441;50.860;0.258;2022-10-26T00:33:32;15.80;99.90
41762;DHT22;27441;50.860;0.258;2022-10-26T00:35:58;15.80;99.90
41762;DHT22;27441;50.860;0.258;2022-10-26T00:38:24;15.90;99.90
41762;DHT22;27441;50.860;0.258;2022-10-26T00:40:49;15.90;99.90
41762;DHT22;27441;50.860;0.258;2022-10-26T00:43:33;15.80;99.90
41762;DHT22;27441;50.860;0.258;2022-10-26T00:46:01;15.80;99.90
41762;DHT22;27441;50.860;0.258;2022-10-26T00:48:35;15.80;99.90
41762;DHT22;27441;50.860;0.258;2022-10-26T00:51:28;15.80;99.90
41762;DHT22;27441;50.860;0.258;2022-10-26T00:53:53;15.90;99.90
41762;DHT22;27441;50.860;0.258;2022-10-26T00:56:19;16.00;99.90
41762;DHT22;27441;50.860;0.258;2022-10-26T00:58:45;16.00;99.90
41762;DHT22;27441;50.860;0.258;2022-10-26T01:01:11;16.00;99.90
41762;DHT22;27441;50.860;0.258;2022-10-26T01:03:38;16.00;99.90
41762;DHT22;27441;50.860;0.258;2022-10-26T01:06:04;16.00;99.90
41762;DHT22;27441;50.860;0.258;2022-10-26T01:08:30;16.00;99.90
41762;DHT22;27441;50.860;0.258;2022-10-26T01:10:57;16.00;99.90
41762;DHT22;27441;50.860;0.258;2022-10-26T01:13:25;16.00;99.90
41762;DHT22;27441;50.860;0.258;2022-10-26T01:18:42;15.90;99.90
41762;DHT22;27441;50.860;0.258;2022-10-26T01:24:20;15.90;99.90
41762;DHT22;27441;50.860;0.258;2022-10-26T01:34:58;15.80;99.90
41762;DHT22;27441;50.860;0.258;2022-10-26T01:37:30;15.80;99.90
41762;DHT22;27441;50.860;0.258;2022-10-26T01:43:08;15.90;99.90
41762;DHT22;27441;50.860;0.258;2022-10-26T01:45:39;15.80;99.90
41762;DHT22;27441;50.860;0.258;2022-10-26T01:48:07;15.80;99.90
41762;DHT22;27441;50.860;0.258;2022-10-26T01:50:34;15.80;99.90
41762;DHT22;27441;50.860;0.258;2022-10-26T01:53:01;15.70;99.90
41762;DHT22;27441;50.860;0.258;2022-10-26T02:03:48;15.70;99.90
41762;DHT22;27441;50.860;0.258;2022-10-26T02:06:24;15.80;99.90
41762;DHT22;27441;50.860;0.258;2022-10-26T02:09:11;15.80;99.90
41762;DHT22;27441;50.860;0.258;2022-10-26T02:11:44;15.80;99.90
41762;DHT22;27441;50.860;0.258;2022-10-26T02:16:57;15.70;99.90
41762;DHT22;27441;50.860;0.258;2022-10-26T02:22:12;15.60;99.90
41762;DHT22;27441;50.860;0.258;2022-10-26T02:24:40;15.60;99.90
41762;DHT22;27441;50.860;0.258;2022-10-26T02:27:11;15.60;99.90
41762;DHT22;27441;50.860;0.258;2022-10-26T02:29:38;15.80;99.90
41762;DHT22;27441;50.860;0.258;2022-10-26T02:32:06;15.70;99.90
41762;DHT22;27441;50.860;0.258;2022-10-26T02:34:33;15.80;99.90
41762;DHT22;27441;50.860;0.258;2022-10-26T02:37:01;15.70;99.90
41762;DHT22;27441;50.860;0.258;2022-10-26T02:39:31;15.70;99.90
41762;DHT22;27441;50.860;0.258;2022-10-26T02:42:00;15.70;99.90
41762;DHT22;27441;50.860;0.258;2022-10-26T02:44:30;15.70;99.90
41762;DHT22;27441;50.860;0.258;2022-10-26T02:46:57;15.80;99.90
41762;DHT22;27441;50.860;0.258;2022-10-26T02:49:23;15.80;99.90
41762;DHT22;27441;50.860;0.258;2022-10-26T02:51:59;15.80;99.90
41762;DHT22;27441;50.860;0.258;2022-10-26T02:54:49;15.90;99.90
41762;DHT22;27441;50.860;0.258;2022-10-26T02:57:46;15.80;99.90
41762;DHT22;27441;50.860;0.258;2022-10-26T03:00:16;15.80;99.90
41762;DHT22;27441;50.860;0.258;2022-10-26T03:02:43;15.80;99.90
41762;DHT22;27441;50.860;0.258;2022-10-26T03:05:26;15.80;99.90
41762;DHT22;27441;50.860;0.258;2022-10-26T03:07:52;15.80;99.90
41762;DHT22;27441;50.860;0.258;2022-10-26T03:10:18;15.80;99.90
41762;DHT22;27441;50.860;0.258;2022-10-26T03:12:44;15.80;99.90
41762;DHT22;27441;50.860;0.258;2022-10-26T03:15:10;15.80;99.90
41762;DHT22;27441;50.860;0.258;2022-10-26T03:17:36;15.80;99.90
41762;DHT22;27441;50.860;0.258;2022-10-26T03:20:02;15.80;99.90
41762;DHT22;27441;50.860;0.258;2022-10-26T03:22:28;15.80;99.90
41762;DHT22;27441;50.860;0.258;2022-10-26T03:24:53;15.70;99.90
41762;DHT22;27441;50.860;0.258;2022-10-26T03:27:19;15.80;99.90
41762;DHT22;27441;50.860;0.258;2022-10-26T03:29:45;15.80;99.90
41762;DHT22;27441;50.860;0.258;2022-10-26T03:32:11;15.70;99.90
41762;DHT22;27441;50.860;0.258;2022-10-26T03:34:37;15.70;99.90
41762;DHT22;27441;50.860;0.258;2022-10-26T03:37:02;15.70;99.90
41762;DHT22;27441;50.860;0.258;2022-10-26T03:39:28;15.70;99.90
41762;DHT22;27441;50.860;0.258;2022-10-26T03:41:54;15.70;99.90
41762;DHT22;27441;50.860;0.258;2022-10-26T03:44:22;15.70;99.90
41762;DHT22;27441;50.860;0.258;2022-10-26T03:46:48;15.70;99.90
41762;DHT22;27441;50.860;0.258;2022-10-26T03:49:14;15.70;99.90
41762;DHT22;27441;50.860;0.258;2022-10-26T03:51:39;15.70;99.90
41762;DHT22;27441;50.860;0.258;2022-10-26T03:54:05;15.70;99.90
41762;DHT22;27441;50.860;0.258;2022-10-26T03:56:31;15.80;99.90
41762;DHT22;27441;50.860;0.258;2022-10-26T03:58:57;15.90;99.90
41762;DHT22;27441;50.860;0.258;2022-10-26T04:01:22;15.90;99.90
41762;DHT22;27441;50.860;0.258;2022-10-26T04:03:48;16.00;99.90
41762;DHT22;27441;50.860;0.258;2022-10-26T04:06:14;16.00;99.90
41762;DHT22;27441;50.860;0.258;2022-10-26T04:08:39;16.00;99.90
41762;DHT22;27441;50.860;0.258;2022-10-26T04:11:05;16.00;99.90
41762;DHT22;27441;50.860;0.258;2022-10-26T04:13:31;16.10;99.90
41762;DHT22;27441;50.860;0.258;2022-10-26T04:15:57;16.10;99.90
41762;DHT22;27441;50.860;0.258;2022-10-26T04:18:23;16.10;99.90
41762;DHT22;27441;50.860;0.258;2022-10-26T04:20:49;16.20;99.90
41762;DHT22;27441;50.860;0.258;2022-10-26T04:23:16;16.20;99.90
41762;DHT22;27441;50.860;0.258;2022-10-26T04:25:42;16.30;99.90
41762;DHT22;27441;50.860;0.258;2022-10-26T04:28:09;16.30;99.90
41762;DHT22;27441;50.860;0.258;2022-10-26T04:30:35;16.30;99.90
41762;DHT22;27441;50.860;0.258;2022-10-26T04:33:02;16.30;99.90
41762;DHT22;27441;50.860;0.258;2022-10-26T04:35:28;16.30;99.90
41762;DHT22;27441;50.860;0.258;2022-10-26T04:37:58;16.30;99.90
41762;DHT22;27441;50.860;0.258;2022-10-26T04:40:23;16.20;99.90
41762;DHT22;27441;50.860;0.258;2022-10-26T04:42:49;16.20;99.90
41762;DHT22;27441;50.860;0.258;2022-10-26T04:45:15;16.20;99.90
41762;DHT22;27441;50.860;0.258;2022-10-26T04:47:41;16.10;99.90
41762;DHT22;27441;50.860;0.258;2022-10-26T04:50:09;16.10;99.90
41762;DHT22;27441;50.860;0.258;2022-10-26T04:52:35;16.10;99.90
41762;DHT22;27441;50.860;0.258;2022-10-26T04:55:02;16.10;99.90
41762;DHT22;27441;50.860;0.258;2022-10-26T04:57:34;16.00;99.90
41762;DHT22;27441;50.860;0.258;2022-10-26T05:00:00;16.00;99.90
41762;DHT22;27441;50.860;0.258;2022-10-26T05:02:29;16.00;99.90
41762;DHT22;27441;50.860;0.258;2022-10-26T05:04:55;15.90;99.90
41762;DHT22;27441;50.860;0.258;2022-10-26T05:07:20;15.90;99.90
41762;DHT22;27441;50.860;0.258;2022-10-26T05:09:46;15.90;99.90
41762;DHT22;27441;50.860;0.258;2022-10-26T05:12:12;15.90;99.90
41762;DHT22;27441;50.860;0.258;2022-10-26T05:14:38;15.80;99.90
41762;DHT22;27441;50.860;0.258;2022-10-26T05:17:04;15.80;99.90
41762;DHT22;27441;50.860;0.258;2022-10-26T05:19:29;15.80;99.90
41762;DHT22;27441;50.860;0.258;2022-10-26T05:21:55;15.80;99.90
41762;DHT22;27441;50.860;0.258;2022-10-26T05:24:21;15.90;99.90
41762;DHT22;27441;50.860;0.258;2022-10-26T05:26:46;15.80;99.90
41762;DHT22;27441;50.860;0.258;2022-10-26T05:29:12;15.90;99.90
41762;DHT22;27441;50.860;0.258;2022-10-26T05:31:38;15.90;99.90
41762;DHT22;27441;50.860;0.258;2022-10-26T05:34:04;16.00;99.90
41762;DHT22;27441;50.860;0.258;2022-10-26T05:36:29;16.10;99.90
41762;DHT22;27441;50.860;0.258;2022-10-26T05:38:58;16.00;99.90
41762;DHT22;27441;50.860;0.258;2022-10-26T05:41:24;16.10;99.90
41762;DHT22;27441;50.860;0.258;2022-10-26T05:43:50;16.10;99.90
41762;DHT22;27441;50.860;0.258;2022-10-26T05:46:16;16.10;99.90
41762;DHT22;27441;50.860;0.258;2022-10-26T05:48:41;16.10;99.90
41762;DHT22;27441;50.860;0.258;2022-10-26T05:51:07;16.10;99.90
41762;DHT22;27441;50.860;0.258;2022-10-26T05:53:33;16.10;99.90
41762;DHT22;27441;50.860;0.258;2022-10-26T05:55:59;16.00;99.90
41762;DHT22;27441;50.860;0.258;2022-10-26T05:58:25;16.00;99.90
41762;DHT22;27441;50.860;0.258;2022-10-26T06:01:17;16.00;99.90
41762;DHT22;27441;50.860;0.258;2022-10-26T06:06:52;15.90;99.90
41762;DHT22;27441;50.860;0.258;2022-10-26T06:09:21;15.80;99.90
41762;DHT22;27441;50.860;0.258;2022-10-26T06:11:47;15.90;99.90
41762;DHT22;27441;50.860;0.258;2022-10-26T06:14:14;15.80;99.90
41762;DHT22;27441;50.860;0.258;2022-10-26T06:16:44;15.90;99.90
41762;DHT22;27441;50.860;0.258;2022-10-26T06:22:41;15.90;99.90
41762;DHT22;27441;50.860;0.258;2022-10-26T06:24:56;16.00;99.90
41762;DHT22;27441;50.860;0.258;2022-10-26T06:30:44;16.00;99.90
41762;DHT22;27441;50.860;0.258;2022-10-26T06:33:11;16.00;99.90
41762;DHT22;27441;50.860;0.258;2022-10-26T06:38:15;16.10;99.90
41762;DHT22;27441;50.860;0.258;2022-10-26T06:40:43;16.10;99.90
41762;DHT22;27441;50.860;0.258;2022-10-26T06:43:36;16.10;99.90
41762;DHT22;27441;50.860;0.258;2022-10-26T06:46:09;16.10;99.90
41762;DHT22;27441;50.860;0.258;2022-10-26T06:49:09;16.10;99.90
41762;DHT22;27441;50.860;0.258;2022-10-26T06:51:45;16.10;99.90
41762;DHT22;27441;50.860;0.258;2022-10-26T06:54:14;16.00;99.90
41762;DHT22;27441;50.860;0.258;2022-10-26T06:56:42;16.00;99.90
41762;DHT22;27441;50.860;0.258;2022-10-26T06:59:17;15.90;99.90
41762;DHT22;27441;50.860;0.258;2022-10-26T07:01:46;15.90;99.90
41762;DHT22;27441;50.860;0.258;2022-10-26T07:04:12;15.80;99.90
41762;DHT22;27441;50.860;0.258;2022-10-26T07:06:38;15.80;99.90
41762;DHT22;27441;50.860;0.258;2022-10-26T07:09:03;15.80;99.90
41762;DHT22;27441;50.860;0.258;2022-10-26T07:11:29;15.70;99.90
41762;DHT22;27441;50.860;0.258;2022-10-26T07:13:55;15.70;99.90
41762;DHT22;27441;50.860;0.258;2022-10-26T07:16:21;15.70;99.90
41762;DHT22;27441;50.860;0.258;2022-10-26T07:18:47;15.70;99.90
41762;DHT22;27441;50.860;0.258;2022-10-26T07:21:13;15.70;99.90
41762;DHT22;27441;50.860;0.258;2022-10-26T07:23:39;15.70;99.90
41762;DHT22;27441;50.860;0.258;2022-10-26T07:26:04;15.70;99.90
41762;DHT22;27441;50.860;0.258;2022-10-26T07:28:30;15.70;99.90
41762;DHT22;27441;50.860;0.258;2022-10-26T07:30:57;15.70;99.90
41762;DHT22;27441;50.860;0.258;2022-10-26T07:33:23;15.70;99.90
41762;DHT22;27441;50.860;0.258;2022-10-26T07:35:49;15.70;99.90
41762;DHT22;27441;50.860;0.258;2022-10-26T07:38:14;15.70;99.90
41762;DHT22;27441;50.860;0.258;2022-10-26T07:40:40;15.80;99.90
41762;DHT22;27441;50.860;0.258;2022-10-26T07:43:06;15.90;99.90
41762;DHT22;27441;50.860;0.258;2022-10-26T07:45:32;15.90;99.90
41762;DHT22;27441;50.860;0.258;2022-10-26T07:47:57;16.00;99.90
41762;DHT22;27441;50.860;0.258;2022-10-26T07:50:24;16.00;99.90
41762;DHT22;27441;50.860;0.258;2022-10-26T07:52:49;16.10;99.90
41762;DHT22;27441;50.860;0.258;2022-10-26T07:55:15;16.10;99.90
41762;DHT22;27441;50.860;0.258;2022-10-26T07:57:41;16.20;99.90
41762;DHT22;27441;50.860;0.258;2022-10-26T08:00:08;16.20;99.90
41762;DHT22;27441;50.860;0.258;2022-10-26T08:02:34;16.20;99.90
41762;DHT22;27441;50.860;0.258;2022-10-26T08:05:01;16.30;99.90
41762;DHT22;27441;50.860;0.258;2022-10-26T08:07:27;16.30;99.90
41762;DHT22;27441;50.860;0.258;2022-10-26T08:09:53;16.30;99.90
41762;DHT22;27441;50.860;0.258;2022-10-26T08:12:19;16.40;99.90
41762;DHT22;27441;50.860;0.258;2022-10-26T08:14:45;16.50;99.90
41762;DHT22;27441;50.860;0.258;2022-10-26T08:17:10;16.60;99.90
41762;DHT22;27441;50.860;0.258;2022-10-26T08:19:36;16.70;99.90
41762;DHT22;27441;50.860;0.258;2022-10-26T08:22:02;16.80;99.90
41762;DHT22;27441;50.860;0.258;2022-10-26T08:24:28;16.80;99.90
41762;DHT22;27441;50.860;0.258;2022-10-26T08:26:54;16.80;99.90
41762;DHT22;27441;50.860;0.258;2022-10-26T08:29:20;16.90;99.90
41762;DHT22;27441;50.860;0.258;2022-10-26T08:31:46;16.90;99.90
41762;DHT22;27441;50.860;0.258;2022-10-26T08:34:13;16.90;99.90
41762;DHT22;27441;50.860;0.258;2022-10-26T08:36:38;17.00;99.90
41762;DHT22;27441;50.860;0.258;2022-10-26T08:39:04;17.00;99.90
41762;DHT22;27441;50.860;0.258;2022-10-26T08:41:43;17.00;99.90
41762;DHT22;27441;50.860;0.258;2022-10-26T08:44:23;17.00;99.90
41762;DHT22;27441;50.860;0.258;2022-10-26T08:52:13;17.20;99.90
41762;DHT22;27441;50.860;0.258;2022-10-26T08:55:00;17.20;99.90
41762;DHT22;27441;50.860;0.258;2022-10-26T08:57:36;17.30;99.90
41762;DHT22;27441;50.860;0.258;2022-10-26T09:00:16;17.50;99.90
41762;DHT22;27441;50.860;0.258;2022-10-26T09:02:42;17.60;99.90
41762;DHT22;27441;50.860;0.258;2022-10-26T09:05:23;17.70;99.90
41762;DHT22;27441;50.860;0.258;2022-10-26T09:10:46;17.90;99.90
41762;DHT22;27441;50.860;0.258;2022-10-26T09:13:46;17.90;99.90
41762;DHT22;27441;50.860;0.258;2022-10-26T09:24:30;18.30;99.90
41762;DHT22;27441;50.860;0.258;2022-10-26T09:29:40;18.50;99.90
41762;DHT22;27441;50.860;0.258;2022-10-26T09:32:20;18.60;99.90
41762;DHT22;27441;50.860;0.258;2022-10-26T09:34:52;18.70;99.90
41762;DHT22;27441;50.860;0.258;2022-10-26T09:37:31;18.90;99.90
41762;DHT22;27441;50.860;0.258;2022-10-26T09:40:10;19.10;99.90
41762;DHT22;27441;50.860;0.258;2022-10-26T09:42:47;19.20;99.90
41762;DHT22;27441;50.860;0.258;2022-10-26T09:45:21;19.20;99.90
41762;DHT22;27441;50.860;0.258;2022-10-26T09:47:51;19.50;99.90
41762;DHT22;27441;50.860;0.258;2022-10-26T09:50:25;19.60;99.90
41762;DHT22;27441;50.860;0.258;2022-10-26T09:52:52;19.50;99.90
41762;DHT22;27441;50.860;0.258;2022-10-26T09:55:18;19.40;99.90
41762;DHT22;27441;50.860;0.258;2022-10-26T09:57:50;19.30;99.90
41762;DHT22;27441;50.860;0.258;2022-10-26T10:00:18;19.50;99.90
41762;DHT22;27441;50.860;0.258;2022-10-26T10:02:55;19.70;99.90
41762;DHT22;27441;50.860;0.258;2022-10-26T10:11:04;20.10;99.90
41762;DHT22;27441;50.860;0.258;2022-10-26T10:13:37;20.20;99.90
41762;DHT22;27441;50.860;0.258;2022-10-26T10:18:35;20.20;99.90
41762;DHT22;27441;50.860;0.258;2022-10-26T10:21:03;20.10;99.90
41762;DHT22;27441;50.860;0.258;2022-10-26T10:23:33;20.20;99.90
41762;DHT22;27441;50.860;0.258;2022-10-26T10:26:09;20.40;99.90
41762;DHT22;27441;50.860;0.258;2022-10-26T10:28:36;20.60;99.90
41762;DHT22;27441;50.860;0.258;2022-10-26T10:31:19;20.80;99.90
41762;DHT22;27441;50.860;0.258;2022-10-26T10:33:46;20.70;99.90
41762;DHT22;27441;50.860;0.258;2022-10-26T10:36:21;20.70;99.90
41762;DHT22;27441;50.860;0.258;2022-10-26T10:38:50;20.80;99.90
41762;DHT22;27441;50.860;0.258;2022-10-26T10:44:04;20.80;99.90
41762;DHT22;27441;50.860;0.258;2022-10-26T10:46:31;21.00;99.90
41762;DHT22;27441;50.860;0.258;2022-10-26T10:49:06;21.30;99.90
41762;DHT22;27441;50.860;0.258;2022-10-26T10:51:42;21.50;99.90
41762;DHT22;27441;50.860;0.258;2022-10-26T10:54:35;21.30;99.90
41762;DHT22;27441;50.860;0.258;2022-10-26T10:57:31;21.00;99.90
41762;DHT22;27441;50.860;0.258;2022-10-26T11:00:05;21.00;99.90
41762;DHT22;27441;50.860;0.258;2022-10-26T11:10:35;21.40;99.90
41762;DHT22;27441;50.860;0.258;2022-10-26T11:13:05;21.40;99.90
41762;DHT22;27441;50.860;0.258;2022-10-26T11:15:34;21.20;99.90
41762;DHT22;27441;50.860;0.258;2022-10-26T11:18:05;21.10;99.90
41762;DHT22;27441;50.860;0.258;2022-10-26T11:20:41;20.70;99.90
41762;DHT22;27441;50.860;0.258;2022-10-26T11:25:58;20.20;99.90
41762;DHT22;27441;50.860;0.258;2022-10-26T11:31:16;20.30;99.90
41762;DHT22;27441;50.860;0.258;2022-10-26T11:34:00;20.60;99.90
41762;DHT22;27441;50.860;0.258;2022-10-26T11:36:27;20.60;99.90
41762;DHT22;27441;50.860;0.258;2022-10-26T11:39:04;20.60;99.90
41762;DHT22;27441;50.860;0.258;2022-10-26T11:41:41;20.70;99.90
41762;DHT22;27441;50.860;0.258;2022-10-26T11:44:12;20.60;99.90
41762;DHT22;27441;50.860;0.258;2022-10-26T11:46:40;20.50;99.90
41762;DHT22;27441;50.860;0.258;2022-10-26T11:49:12;20.30;99.90
41762;DHT22;27441;50.860;0.258;2022-10-26T11:51:57;20.20;99.90
41762;DHT22;27441;50.860;0.258;2022-10-26T11:54:54;20.20;99.90
41762;DHT22;27441;50.860;0.258;2022-10-26T11:57:22;20.00;99.90
41762;DHT22;27441;50.860;0.258;2022-10-26T11:59:54;19.90;99.90
41762;DHT22;27441;50.860;0.258;2022-10-26T12:02:23;19.80;99.90
41762;DHT22;27441;50.860;0.258;2022-10-26T12:07:37;19.80;99.90
41762;DHT22;27441;50.860;0.258;2022-10-26T12:10:09;19.80;99.90
41762;DHT22;27441;50.860;0.258;2022-10-26T12:12:48;19.80;99.90
41762;DHT22;27441;50.860;0.258;2022-10-26T12:18:08;19.60;99.90
41762;DHT22;27441;50.860;0.258;2022-10-26T12:23:03;19.50;99.90
41762;DHT22;27441;50.860;0.258;2022-10-26T12:25:29;19.40;99.90
41762;DHT22;27441;50.860;0.258;2022-10-26T12:27:56;19.50;99.90
41762;DHT22;27441;50.860;0.258;2022-10-26T12:32:59;19.50;99.90
41762;DHT22;27441;50.860;0.258;2022-10-26T12:35:36;19.50;99.90
41762;DHT22;27441;50.860;0.258;2022-10-26T12:43:32;19.40;99.90
41762;DHT22;27441;50.860;0.258;2022-10-26T12:48:40;19.30;99.90
41762;DHT22;27441;50.860;0.258;2022-10-26T12:54:00;19.30;99.90
41762;DHT22;27441;50.860;0.258;2022-10-26T13:07:24;19.30;99.90
41762;DHT22;27441;50.860;0.258;2022-10-26T13:12:58;19.10;99.90
41762;DHT22;27441;50.860;0.258;2022-10-26T13:15:39;19.10;99.90
41762;DHT22;27441;50.860;0.258;2022-10-26T13:18:15;19.00;99.90
41762;DHT22;27441;50.860;0.258;2022-10-26T13:21:07;19.00;99.90
41762;DHT22;27441;50.860;0.258;2022-10-26T13:23:48;19.00;99.90
41762;DHT22;27441;50.860;0.258;2022-10-26T13:26:27;19.00;99.90
41762;DHT22;27441;50.860;0.258;2022-10-26T13:29:03;19.00;99.90
41762;DHT22;27441;50.860;0.258;2022-10-26T13:34:09;19.00;99.90
41762;DHT22;27441;50.860;0.258;2022-10-26T13:36:41;19.00;99.90
41762;DHT22;27441;50.860;0.258;2022-10-26T13:39:17;19.00;99.90
41762;DHT22;27441;50.860;0.258;2022-10-26T13:41:46;18.90;99.90
41762;DHT22;27441;50.860;0.258;2022-10-26T13:44:24;18.90;99.90
41762;DHT22;27441;50.860;0.258;2022-10-26T13:47:11;18.80;99.90
41762;DHT22;27441;50.860;0.258;2022-10-26T13:49:42;18.80;99.90
41762;DHT22;27441;50.860;0.258;2022-10-26T13:52:37;18.80;99.90
41762;DHT22;27441;50.860;0.258;2022-10-26T13:55:14;18.70;99.90
41762;DHT22;27441;50.860;0.258;2022-10-26T13:57:43;18.70;99.90
41762;DHT22;27441;50.860;0.258;2022-10-26T14:00:21;18.70;99.90
41762;DHT22;27441;50.860;0.258;2022-10-26T14:02:47;18.70;99.90
41762;DHT22;27441;50.860;0.258;2022-10-26T14:05:15;18.60;99.90
41762;DHT22;27441;50.860;0.258;2022-10-26T14:07:53;18.60;99.90
41762;DHT22;27441;50.860;0.258;2022-10-26T14:10:36;18.50;99.90
41762;DHT22;27441;50.860;0.258;2022-10-26T14:13:07;18.50;99.90
41762;DHT22;27441;50.860;0.258;2022-10-26T14:15:34;18.50;99.90
41762;DHT22;27441;50.860;0.258;2022-10-26T14:18:02;18.50;99.90
41762;DHT22;27441;50.860;0.258;2022-10-26T14:20:30;18.50;99.90
41762;DHT22;27441;50.860;0.258;2022-10-26T14:22:56;18.50;99.90
41762;DHT22;27441;50.860;0.258;2022-10-26T14:25:25;18.50;99.90
41762;DHT22;27441;50.860;0.258;2022-10-26T14:27:51;18.50;99.90
41762;DHT22;27441;50.860;0.258;2022-10-26T14:30:25;18.50;99.90
41762;DHT22;27441;50.860;0.258;2022-10-26T14:32:52;18.50;99.90
41762;DHT22;27441;50.860;0.258;2022-10-26T14:35:21;18.50;99.90
41762;DHT22;27441;50.860;0.258;2022-10-26T14:37:55;18.50;99.90
41762;DHT22;27441;50.860;0.258;2022-10-26T14:40:26;18.40;99.90
41762;DHT22;27441;50.860;0.258;2022-10-26T14:42:57;18.40;99.90
41762;DHT22;27441;50.860;0.258;2022-10-26T14:47:52;18.40;99.90
41762;DHT22;27441;50.860;0.258;2022-10-26T14:50:20;18.40;99.90
41762;DHT22;27441;50.860;0.258;2022-10-26T14:52:51;18.40;99.90
41762;DHT22;27441;50.860;0.258;2022-10-26T14:55:18;18.40;99.90
41762;DHT22;27441;50.860;0.258;2022-10-26T14:57:48;18.40;99.90
41762;DHT22;27441;50.860;0.258;2022-10-26T15:02:46;18.40;99.90
41762;DHT22;27441;50.860;0.258;2022-10-26T15:05:35;18.30;99.90
41762;DHT22;27441;50.860;0.258;2022-10-26T15:08:01;18.30;99.90
41762;DHT22;27441;50.860;0.258;2022-10-26T15:15:43;18.30;99.90
41762;DHT22;27441;50.860;0.258;2022-10-26T15:18:25;18.30;99.90
41762;DHT22;27441;50.860;0.258;2022-10-26T15:20:52;18.20;99.90
41762;DHT22;27441;50.860;0.258;2022-10-26T15:23:22;18.20;99.90
41762;DHT22;27441;50.860;0.258;2022-10-26T15:25:56;18.20;99.90
41762;DHT22;27441;50.860;0.258;2022-10-26T15:28:31;18.20;99.90
41762;DHT22;27441;50.860;0.258;2022-10-26T15:31:26;18.10;99.90
41762;DHT22;27441;50.860;0.258;2022-10-26T15:36:23;18.00;99.90
41762;DHT22;27441;50.860;0.258;2022-10-26T15:38:49;18.00;99.90
41762;DHT22;27441;50.860;0.258;2022-10-26T15:41:32;18.00;99.90
41762;DHT22;27441;50.860;0.258;2022-10-26T15:44:02;17.90;99.90
41762;DHT22;27441;50.860;0.258;2022-10-26T15:46:33;17.90;99.90
41762;DHT22;27441;50.860;0.258;2022-10-26T15:49:01;17.80;99.90
41762;DHT22;27441;50.860;0.258;2022-10-26T15:51:27;17.70;99.90
41762;DHT22;27441;50.860;0.258;2022-10-26T15:53:56;17.70;99.90
41762;DHT22;27441;50.860;0.258;2022-10-26T15:56:24;17.60;99.90
41762;DHT22;27441;50.860;0.258;2022-10-26T15:58:50;17.60;99.90
41762;DHT22;27441;50.860;0.258;2022-10-26T16:01:19;17.50;99.90
41762;DHT22;27441;50.860;0.258;2022-10-26T16:03:46;17.50;99.90
41762;DHT22;27441;50.860;0.258;2022-10-26T16:08:45;17.40;99.90
41762;DHT22;27441;50.860;0.258;2022-10-26T16:11:13;17.30;99.90
41762;DHT22;27441;50.860;0.258;2022-10-26T16:13:39;17.30;99.90
41762;DHT22;27441;50.860;0.258;2022-10-26T16:16:11;17.30;99.90
41762;DHT22;27441;50.860;0.258;2022-10-26T16:18:37;17.30;99.90
41762;DHT22;27441;50.860;0.258;2022-10-26T16:21:03;17.20;99.90
41762;DHT22;27441;50.860;0.258;2022-10-26T16:23:29;17.30;99.90
41762;DHT22;27441;50.860;0.258;2022-10-26T16:25:54;17.20;99.90
41762;DHT22;27441;50.860;0.258;2022-10-26T16:28:20;17.10;99.90
41762;DHT22;27441;50.860;0.258;2022-10-26T16:30:46;17.10;99.90
41762;DHT22;27441;50.860;0.258;2022-10-26T16:33:11;17.10;99.90
41762;DHT22;27441;50.860;0.258;2022-10-26T16:35:37;17.10;99.90
41762;DHT22;27441;50.860;0.258;2022-10-26T16:38:03;17.10;99.90
41762;DHT22;27441;50.860;0.258;2022-10-26T16:40:29;17.00;99.90
41762;DHT22;27441;50.860;0.258;2022-10-26T16:42:55;17.10;99.90
41762;DHT22;27441;50.860;0.258;2022-10-26T16:45:21;17.00;99.90
41762;DHT22;27441;50.860;0.258;2022-10-26T16:47:46;17.00;99.90
41762;DHT22;27441;50.860;0.258;2022-10-26T16:50:12;17.00;99.90
41762;DHT22;27441;50.860;0.258;2022-10-26T16:52:39;17.00;99.90
41762;DHT22;27441;50.860;0.258;2022-10-26T16:55:06;17.00;99.90
41762;DHT22;27441;50.860;0.258;2022-10-26T16:57:33;17.00;99.90
41762;DHT22;27441;50.860;0.258;2022-10-26T16:59:59;17.00;99.90
41762;DHT22;27441;50.860;0.258;2022-10-26T17:02:25;16.90;99.90
41762;DHT22;27441;50.860;0.258;2022-10-26T17:04:51;16.90;99.90
41762;DHT22;27441;50.860;0.258;2022-10-26T17:07:16;16.90;99.90
41762;DHT22;27441;50.860;0.258;2022-10-26T17:09:42;16.80;99.90
41762;DHT22;27441;50.860;0.258;2022-10-26T17:12:08;16.80;99.90
41762;DHT22;27441;50.860;0.258;2022-10-26T17:14:36;16.80;99.90
41762;DHT22;27441;50.860;0.258;2022-10-26T17:17:02;16.70;99.90
41762;DHT22;27441;50.860;0.258;2022-10-26T17:19:27;16.70;99.90
41762;DHT22;27441;50.860;0.258;2022-10-26T17:21:53;16.70;99.90
41762;DHT22;27441;50.860;0.258;2022-10-26T17:24:19;16.60;99.90
41762;DHT22;27441;50.860;0.258;2022-10-26T17:26:44;16.70;99.90
41762;DHT22;27441;50.860;0.258;2022-10-26T17:29:11;16.60;99.90
41762;DHT22;27441;50.860;0.258;2022-10-26T17:31:37;16.60;99.90
41762;DHT22;27441;50.860;0.258;2022-10-26T17:34:03;16.60;99.90
41762;DHT22;27441;50.860;0.258;2022-10-26T17:36:29;16.60;99.90
41762;DHT22;27441;50.860;0.258;2022-10-26T17:38:56;16.60;99.90
41762;DHT22;27441;50.860;0.258;2022-10-26T17:41:22;16.50;99.90
41762;DHT22;27441;50.860;0.258;2022-10-26T17:43:48;16.50;99.90
41762;DHT22;27441;50.860;0.258;2022-10-26T17:46:24;16.50;99.90
41762;DHT22;27441;50.860;0.258;2022-10-26T17:48:58;16.50;99.90
41762;DHT22;27441;50.860;0.258;2022-10-26T17:51:25;16.50;99.90
41762;DHT22;27441;50.860;0.258;2022-10-26T17:53:52;16.50;99.90
41762;DHT22;27441;50.860;0.258;2022-10-26T17:56:20;16.40;99.90
41762;DHT22;27441;50.860;0.258;2022-10-26T17:58:53;16.40;99.90
41762;DHT22;27441;50.860;0.258;2022-10-26T18:01:19;16.40;99.90
41762;DHT22;27441;50.860;0.258;2022-10-26T18:03:45;16.40;99.90
41762;DHT22;27441;50.860;0.258;2022-10-26T18:06:11;16.40;99.90